Time;durP1;ratioP1;P1;durP2;ratioP2;P2;SDS_P1;SDS_P2;PMS_P1;PMS_P2;Temp;Humidity;BMP_temperature;BMP_pressure;BME280_temperature;BME280_humidity;BME280_pressure;Samples;Min_cycle;Max_cycle;Signal;HPM_P1;HPM_P2
2023/04/10 00:00:08;;;;;;;30.23;16.20;;;11.00;99.90;;;;;;5012963;28;20206;-81
2023/04/10 00:02:36;;;;;;;24.63;13.93;;;10.90;99.90;;;;;;5011633;28;20194;-79
2023/04/10 00:05:02;;;;;;;26.13;15.23;;;11.00;99.90;;;;;;5011865;28;20182;-81
2023/04/10 00:07:27;;;;;;;23.23;14.73;;;11.00;99.90;;;;;;5012211;28;20189;-82
2023/04/10 00:09:53;;;;;;;27.10;14.63;;;11.10;99.90;;;;;;5012660;28;20186;-81
2023/04/10 00:12:19;;;;;;;23.43;13.70;;;11.00;99.90;;;;;;5013149;28;20610;-81
2023/04/10 00:14:45;;;;;;;25.27;14.53;;;11.00;99.90;;;;;;5012464;28;20193;-81
2023/04/10 00:17:10;;;;;;;22.90;13.37;;;11.00;99.90;;;;;;5012885;28;20631;-81
2023/04/10 00:19:36;;;;;;;20.50;12.37;;;11.10;99.90;;;;;;5012364;28;20619;-79
2023/04/10 00:22:02;;;;;;;22.17;13.07;;;11.10;99.90;;;;;;5012775;28;20568;-80
2023/04/10 00:24:28;;;;;;;16.20;9.47;;;;;;;;;;5012572;28;20170;-81
2023/04/10 00:26:53;;;;;;;19.63;11.23;;;11.10;99.90;;;;;;5012428;28;20224;-83
2023/04/10 00:29:19;;;;;;;18.97;10.73;;;11.20;99.90;;;;;;5011963;28;20542;-84
2023/04/10 00:31:45;;;;;;;14.63;9.80;;;11.10;99.90;;;;;;5013447;28;20183;-83
2023/04/10 00:34:10;;;;;;;14.03;8.03;;;11.10;99.90;;;;;;5012874;28;20179;-84
2023/04/10 00:36:36;;;;;;;11.67;6.73;;;11.20;99.90;;;;;;5012654;28;20189;-82
2023/04/10 00:39:02;;;;;;;10.33;6.07;;;11.20;99.90;;;;;;5016676;28;20297;-88
2023/04/10 00:41:28;;;;;;;6.37;4.17;;;11.30;99.90;;;;;;5016298;28;20171;-89
2023/04/10 00:43:57;;;;;;;5.80;4.30;;;11.30;99.90;;;;;;5016178;28;20193;-92
2023/04/10 00:46:26;;;;;;;5.57;3.60;;;11.30;99.90;;;;;;5017123;28;20328;-87
2023/04/10 00:48:53;;;;;;;4.93;3.73;;;11.40;99.90;;;;;;5014039;28;20695;-86
2023/04/10 00:51:19;;;;;;;4.30;3.13;;;11.30;99.90;;;;;;5012773;28;20266;-80
2023/04/10 00:53:47;;;;;;;5.87;3.57;;;11.40;99.90;;;;;;5012415;28;20578;-80
2023/04/10 00:56:13;;;;;;;4.53;3.20;;;11.40;99.90;;;;;;5010241;28;20178;-80
2023/04/10 00:58:39;;;;;;;4.00;3.10;;;;;;;;;;5010534;28;20217;-81
2023/04/10 01:01:05;;;;;;;3.20;2.60;;;11.40;99.90;;;;;;5011512;28;20232;-80
2023/04/10 01:03:31;;;;;;;3.00;2.50;;;11.40;99.90;;;;;;5011625;28;20185;-79
2023/04/10 01:06:07;;;;;;;4.27;2.40;;;11.40;99.90;;;;;;5010496;28;20186;-79
2023/04/10 01:08:48;;;;;;;2.70;2.03;;;11.40;99.90;;;;;;5011805;28;20178;-79
2023/04/10 01:11:48;;;;;;;2.97;1.67;;;11.50;99.90;;;;;;5011407;28;20652;-78
2023/04/10 01:14:29;;;;;;;3.27;1.70;;;11.50;99.90;;;;;;4991556;28;20189;-78
2023/04/10 01:17:30;;;;;;;3.33;1.63;;;11.50;99.90;;;;;;5010829;28;20183;-79
2023/04/10 01:20:13;;;;;;;2.93;1.70;;;11.50;99.90;;;;;;5011226;28;20677;-78
2023/04/10 01:23:07;;;;;;;2.23;1.73;;;11.50;99.90;;;;;;5006644;28;20189;-79
2023/04/10 01:25:38;;;;;;;2.03;1.70;;;11.50;99.90;;;;;;5007518;28;20194;-78
2023/04/10 01:28:10;;;;;;;3.30;2.10;;;11.50;99.90;;;;;;5011353;28;20182;-79
2023/04/10 01:30:36;;;;;;;2.00;1.40;;;11.50;99.90;;;;;;5010531;28;20209;-77
2023/04/10 01:33:05;;;;;;;2.50;1.40;;;11.50;99.90;;;;;;5010413;28;20647;-78
2023/04/10 01:35:32;;;;;;;1.40;1.20;;;11.50;99.90;;;;;;5011859;28;20253;-78
2023/04/10 01:38:00;;;;;;;1.63;0.90;;;11.60;99.90;;;;;;5011376;28;20257;-79
2023/04/10 01:40:28;;;;;;;1.83;1.10;;;11.60;99.90;;;;;;5011519;28;20198;-77
2023/04/10 01:42:55;;;;;;;2.03;1.30;;;11.60;99.90;;;;;;5011165;28;20613;-76
2023/04/10 01:45:26;;;;;;;3.00;1.30;;;11.30;99.90;;;;;;5011332;28;20715;-77
2023/04/10 01:47:54;;;;;;;3.97;1.30;;;11.60;99.90;;;;;;5010799;28;20752;-77
2023/04/10 01:50:24;;;;;;;1.83;1.30;;;11.70;99.90;;;;;;5011200;28;20253;-77
2023/04/10 01:52:51;;;;;;;1.90;1.33;;;11.60;99.90;;;;;;5011056;28;20241;-77
2023/04/10 01:55:19;;;;;;;2.13;1.33;;;11.60;99.90;;;;;;5009146;28;20181;-78
2023/04/10 01:57:47;;;;;;;1.60;1.00;;;11.70;99.90;;;;;;5005936;28;20175;-78
2023/04/10 02:00:15;;;;;;;1.93;1.10;;;11.70;99.90;;;;;;5009471;28;20203;-78
2023/04/10 02:02:41;;;;;;;1.73;1.23;;;11.80;99.90;;;;;;5010177;28;20178;-78
2023/04/10 02:05:09;;;;;;;2.10;1.27;;;11.80;99.90;;;;;;5009985;28;20181;-83
2023/04/10 02:07:54;;;;;;;1.80;1.30;;;11.80;99.90;;;;;;5003038;28;20261;-84
2023/04/10 02:11:02;;;;;;;1.77;1.50;;;11.80;99.90;;;;;;5011038;28;20182;-84
2023/04/10 02:13:32;;;;;;;2.13;1.60;;;11.90;99.90;;;;;;4999875;28;20190;-83
2023/04/10 02:16:00;;;;;;;1.90;1.27;;;11.90;99.90;;;;;;5003515;28;20178;-83
2023/04/10 02:18:26;;;;;;;4.57;1.63;;;11.90;99.90;;;;;;5009326;28;20198;-85
2023/04/10 02:20:53;;;;;;;2.67;1.90;;;11.90;99.90;;;;;;5012217;28;20182;-85
2023/04/10 02:23:19;;;;;;;2.27;1.90;;;11.80;99.90;;;;;;5011744;28;20328;-85
2023/04/10 02:25:45;;;;;;;2.17;1.90;;;11.60;99.90;;;;;;5011285;28;20178;-82
2023/04/10 02:28:11;;;;;;;2.10;1.77;;;11.70;99.90;;;;;;5011797;28;20175;-84
2023/04/10 02:30:38;;;;;;;3.73;2.20;;;11.80;99.90;;;;;;5011093;28;20256;-81
2023/04/10 02:33:04;;;;;;;2.57;1.70;;;11.70;99.90;;;;;;5010876;28;20190;-81
2023/04/10 02:35:30;;;;;;;3.27;1.80;;;12.60;99.90;;;;;;5010071;28;20194;-78
2023/04/10 02:37:55;;;;;;;2.50;1.60;;;11.70;99.90;;;;;;5010745;28;20185;-78
2023/04/10 02:40:21;;;;;;;2.50;1.53;;;11.70;99.90;;;;;;5010559;28;20190;-78
2023/04/10 02:42:47;;;;;;;1.90;1.37;;;11.70;99.90;;;;;;5009713;28;20688;-79
2023/04/10 02:45:12;;;;;;;1.50;1.40;;;11.80;99.90;;;;;;5010335;28;20194;-79
2023/04/10 02:47:38;;;;;;;1.87;1.30;;;11.60;99.90;;;;;;5010718;28;20182;-78
2023/04/10 02:50:04;;;;;;;1.50;1.10;;;11.60;99.90;;;;;;5010889;28;20194;-81
2023/04/10 02:52:30;;;;;;;1.80;1.03;;;11.60;99.90;;;;;;5013913;28;20273;-79
2023/04/10 02:54:55;;;;;;;2.60;1.00;;;11.60;99.90;;;;;;5013548;28;20240;-78
2023/04/10 02:57:21;;;;;;;1.13;0.97;;;11.60;99.90;;;;;;5012323;28;20653;-74
2023/04/10 02:59:50;;;;;;;2.20;1.10;;;11.60;99.90;;;;;;5008827;28;20309;-76
2023/04/10 03:02:15;;;;;;;1.33;0.80;;;11.60;99.90;;;;;;5009587;28;20178;-82
2023/04/10 03:04:41;;;;;;;1.50;1.00;;;11.60;99.90;;;;;;5010503;28;20592;-80
2023/04/10 03:07:07;;;;;;;2.57;0.70;;;11.60;99.90;;;;;;5010202;28;20209;-79
2023/04/10 03:09:33;;;;;;;1.50;0.83;;;11.50;99.90;;;;;;5009047;28;20202;-81
2023/04/10 03:11:58;;;;;;;1.53;0.90;;;11.60;99.90;;;;;;5009857;28;20233;-81
2023/04/10 03:14:25;;;;;;;1.50;0.70;;;11.60;99.90;;;;;;5010146;28;20181;-79
2023/04/10 03:16:50;;;;;;;1.73;0.63;;;11.60;99.90;;;;;;5009809;28;20650;-80
2023/04/10 03:19:16;;;;;;;2.90;0.70;;;11.50;99.90;;;;;;5009613;28;20217;-80
2023/04/10 03:21:41;;;;;;;0.80;0.67;;;11.50;99.90;;;;;;5009985;28;20186;-81
2023/04/10 03:24:07;;;;;;;3.00;0.60;;;11.50;99.90;;;;;;5008860;28;20183;-81
2023/04/10 03:26:33;;;;;;;1.40;0.70;;;11.50;99.90;;;;;;5010160;28;20185;-80
2023/04/10 03:28:58;;;;;;;1.03;0.87;;;11.40;99.90;;;;;;5010946;28;20537;-80
2023/04/10 03:31:24;;;;;;;1.40;0.70;;;;;;;;;;5006637;28;20190;-77
2023/04/10 03:33:50;;;;;;;1.03;0.80;;;11.40;99.90;;;;;;5012890;28;20605;-75
2023/04/10 03:36:16;;;;;;;1.00;0.80;;;;;;;;;;5013633;28;20213;-75
2023/04/10 03:38:42;;;;;;;3.73;0.80;;;11.40;99.90;;;;;;5013269;28;20236;-76
2023/04/10 03:41:08;;;;;;;3.13;0.90;;;11.40;99.90;;;;;;5013647;28;20182;-75
2023/04/10 03:43:33;;;;;;;1.10;0.67;;;11.40;99.90;;;;;;5013265;28;20210;-75
2023/04/10 03:46:00;;;;;;;2.97;0.80;;;;;;;;;;5013108;28;20567;-75
2023/04/10 03:48:27;;;;;;;2.30;0.70;;;11.30;99.90;;;;;;5012980;28;20190;-76
2023/04/10 03:50:56;;;;;;;1.00;0.77;;;11.30;99.90;;;;;;5013490;28;20198;-75
2023/04/10 03:53:22;;;;;;;1.23;0.70;;;;;;;;;;5012971;28;20284;-76
2023/04/10 03:55:47;;;;;;;0.50;0.47;;;11.20;99.90;;;;;;5012011;28;20552;-76
2023/04/10 03:58:13;;;;;;;0.40;0.20;;;11.20;99.90;;;;;;5013385;28;20171;-75
2023/04/10 04:00:39;;;;;;;0.60;0.50;;;11.20;99.90;;;;;;5012920;28;20185;-76
2023/04/10 04:03:04;;;;;;;1.20;0.50;;;11.20;99.90;;;;;;5013216;28;20633;-76
2023/04/10 04:05:31;;;;;;;1.77;0.70;;;11.20;99.90;;;;;;5012702;28;20635;-76
2023/04/10 04:07:56;;;;;;;2.40;0.87;;;11.20;99.90;;;;;;5012696;28;20202;-75
2023/04/10 04:10:23;;;;;;;1.13;0.67;;;11.10;99.90;;;;;;5013012;28;20553;-76
2023/04/10 04:12:48;;;;;;;0.83;0.50;;;11.00;99.90;;;;;;5012776;28;20464;-76
2023/04/10 04:15:14;;;;;;;2.00;0.60;;;11.20;99.90;;;;;;5012042;28;20788;-76
2023/04/10 04:17:41;;;;;;;0.87;0.67;;;11.20;99.90;;;;;;5012455;28;20665;-75
2023/04/10 04:20:07;;;;;;;1.83;0.63;;;11.20;99.90;;;;;;5011733;28;20214;-76
2023/04/10 04:22:32;;;;;;;1.33;0.50;;;11.20;99.90;;;;;;5012045;28;20257;-75
2023/04/10 04:24:58;;;;;;;0.87;0.60;;;11.10;99.90;;;;;;5012472;28;20751;-76
2023/04/10 04:27:24;;;;;;;2.70;0.87;;;11.20;99.90;;;;;;5012250;28;20183;-75
2023/04/10 04:29:49;;;;;;;3.57;0.70;;;11.00;99.90;;;;;;5012634;28;20250;-76
2023/04/10 04:32:15;;;;;;;0.40;0.33;;;11.10;99.90;;;;;;5011989;28;20178;-74
2023/04/10 04:34:41;;;;;;;1.80;0.70;;;11.10;99.90;;;;;;4991601;28;20211;-75
2023/04/10 04:37:06;;;;;;;1.50;0.50;;;11.10;99.90;;;;;;5009934;28;20817;-80
2023/04/10 04:39:32;;;;;;;2.43;0.70;;;11.00;99.90;;;;;;5011951;28;20721;-80
2023/04/10 04:41:57;;;;;;;1.70;0.83;;;11.00;99.90;;;;;;5009835;28;20594;-80
2023/04/10 04:44:23;;;;;;;1.57;0.97;;;11.10;99.90;;;;;;5011960;28;20254;-80
2023/04/10 04:46:49;;;;;;;1.27;0.70;;;11.10;99.90;;;;;;5012565;28;20182;-78
2023/04/10 04:49:14;;;;;;;1.37;0.90;;;11.10;99.90;;;;;;5011592;28;20187;-79
2023/04/10 04:51:40;;;;;;;0.90;0.60;;;11.10;99.90;;;;;;5012020;28;20713;-79
2023/04/10 04:54:06;;;;;;;2.07;0.90;;;;;;;;;;5011132;28;20265;-79
2023/04/10 04:56:31;;;;;;;1.77;1.13;;;11.10;99.90;;;;;;5012309;28;20197;-77
2023/04/10 04:58:57;;;;;;;2.77;0.90;;;11.10;99.90;;;;;;5011593;28;20210;-78
2023/04/10 05:01:23;;;;;;;1.70;1.00;;;11.10;99.90;;;;;;5012141;28;20568;-80
2023/04/10 05:03:49;;;;;;;4.33;1.03;;;11.10;99.90;;;;;;5011893;28;20193;-85
2023/04/10 05:06:15;;;;;;;3.00;1.23;;;10.40;99.90;;;;;;5012196;28;20262;-76
2023/04/10 05:08:40;;;;;;;2.97;1.33;;;11.00;99.90;;;;;;5011371;28;20676;-75
2023/04/10 05:11:06;;;;;;;3.87;1.87;;;11.10;99.90;;;;;;5011673;28;20178;-76
2023/04/10 05:13:31;;;;;;;5.43;1.90;;;11.20;99.90;;;;;;5011136;28;20182;-75
2023/04/10 05:15:57;;;;;;;2.40;1.40;;;11.20;99.90;;;;;;5010806;28;20186;-75
2023/04/10 05:18:23;;;;;;;3.27;1.70;;;11.30;99.90;;;;;;5011877;28;20210;-75
2023/04/10 05:20:49;;;;;;;3.90;1.80;;;11.10;99.90;;;;;;5011319;28;20189;-75
2023/04/10 05:23:15;;;;;;;3.67;1.70;;;11.20;99.90;;;;;;5011628;28;20182;-75
2023/04/10 05:25:41;;;;;;;4.33;2.03;;;11.20;99.90;;;;;;5010655;28;20696;-76
2023/04/10 05:28:07;;;;;;;4.47;2.20;;;11.20;99.90;;;;;;5011723;28;20206;-76
2023/04/10 05:30:32;;;;;;;3.90;2.03;;;11.20;99.90;;;;;;5011096;28;20265;-76
2023/04/10 05:32:58;;;;;;;2.87;1.70;;;11.20;99.90;;;;;;5011427;28;20265;-76
2023/04/10 05:35:23;;;;;;;3.70;2.20;;;11.20;99.90;;;;;;5011002;28;20186;-76
2023/04/10 05:37:49;;;;;;;3.67;1.80;;;11.20;99.90;;;;;;5009997;28;20174;-74
2023/04/10 05:40:15;;;;;;;4.00;1.70;;;11.20;99.90;;;;;;5011616;28;20229;-75
2023/04/10 05:42:40;;;;;;;4.10;2.10;;;11.20;99.90;;;;;;5009559;28;20174;-75
2023/04/10 05:45:08;;;;;;;4.17;1.83;;;11.20;99.90;;;;;;5010892;28;20257;-75
2023/04/10 05:47:33;;;;;;;3.17;1.80;;;11.50;99.90;;;;;;5010988;28;20178;-75
2023/04/10 05:49:59;;;;;;;2.80;1.47;;;11.30;99.90;;;;;;5009059;28;20244;-76
2023/04/10 05:52:24;;;;;;;2.30;1.40;;;11.30;99.90;;;;;;5009880;28;20225;-76
2023/04/10 05:54:51;;;;;;;2.83;1.40;;;11.30;99.90;;;;;;5009190;28;20183;-75
2023/04/10 05:57:16;;;;;;;1.87;0.97;;;11.40;99.90;;;;;;5008074;28;20189;-75
2023/04/10 05:59:42;;;;;;;2.93;1.30;;;11.40;99.90;;;;;;5011218;28;20206;-75
2023/04/10 06:02:08;;;;;;;1.90;1.23;;;11.40;99.90;;;;;;5009933;28;20539;-75
2023/04/10 06:04:33;;;;;;;2.00;1.03;;;11.40;99.90;;;;;;5010681;28;20329;-75
2023/04/10 06:07:00;;;;;;;1.23;1.00;;;11.40;99.90;;;;;;5010576;28;20529;-75
2023/04/10 06:09:25;;;;;;;0.97;0.87;;;11.40;99.90;;;;;;5010132;28;20183;-74
2023/04/10 06:11:52;;;;;;;1.87;0.90;;;11.50;99.90;;;;;;5010792;28;20202;-75
2023/04/10 06:14:19;;;;;;;1.40;1.10;;;11.50;99.90;;;;;;5009464;28;20183;-75
2023/04/10 06:16:44;;;;;;;1.73;0.80;;;11.60;99.90;;;;;;5010838;28;20179;-75
2023/04/10 06:19:10;;;;;;;1.30;0.73;;;11.50;99.90;;;;;;5009742;28;20250;-75
2023/04/10 06:21:36;;;;;;;0.50;0.40;;;11.60;99.90;;;;;;5010502;28;20194;-75
2023/04/10 06:24:01;;;;;;;1.03;0.50;;;11.60;99.90;;;;;;5009924;28;20193;-75
2023/04/10 06:26:27;;;;;;;1.67;0.50;;;11.60;99.90;;;;;;5010305;28;20171;-76
2023/04/10 06:28:53;;;;;;;1.43;0.53;;;11.60;99.90;;;;;;5008288;28;20178;-76
2023/04/10 06:31:22;;;;;;;1.53;0.30;;;11.60;99.90;;;;;;5009549;28;20174;-75
2023/04/10 06:33:48;;;;;;;0.80;0.30;;;11.70;99.90;;;;;;5009570;28;20175;-76
2023/04/10 06:36:14;;;;;;;1.80;0.40;;;11.70;99.90;;;;;;5010405;28;20186;-76
2023/04/10 06:38:40;;;;;;;0.67;0.30;;;11.70;99.90;;;;;;5010778;28;20695;-76
2023/04/10 06:41:06;;;;;;;2.90;0.40;;;11.80;99.90;;;;;;5010295;28;20187;-76
2023/04/10 06:43:36;;;;;;;0.70;0.30;;;11.70;99.90;;;;;;5010121;28;20174;-76
2023/04/10 06:46:03;;;;;;;0.60;0.13;;;11.70;99.90;;;;;;5008923;28;20181;-76
2023/04/10 06:48:30;;;;;;;0.60;0.20;;;11.80;99.90;;;;;;5009660;28;20182;-77
2023/04/10 06:50:55;;;;;;;1.03;0.37;;;11.80;99.90;;;;;;5010521;28;20186;-88
2023/04/10 06:53:21;;;;;;;0.30;0.13;;;11.80;99.90;;;;;;5011589;28;20654;-87
2023/04/10 06:55:47;;;;;;;0.53;0.20;;;;;;;;;;5005451;28;20191;-85
2023/04/10 06:58:13;;;;;;;1.00;0.23;;;;;;;;;;5010939;28;20250;-87
2023/04/10 07:00:40;;;;;;;0.20;0.20;;;11.90;99.90;;;;;;5010444;28;20240;-84
2023/04/10 07:03:05;;;;;;;0.50;0.20;;;11.80;99.90;;;;;;5010117;28;20641;-84
2023/04/10 07:05:31;;;;;;;0.30;0.20;;;11.90;99.90;;;;;;5027538;28;20239;-83
2023/04/10 07:07:56;;;;;;;0.50;0.30;;;11.90;99.90;;;;;;5033506;28;20182;-83
2023/04/10 07:10:22;;;;;;;0.50;0.20;;;11.90;99.90;;;;;;5028321;28;20216;-86
2023/04/10 07:12:48;;;;;;;0.70;0.20;;;11.80;99.90;;;;;;5014061;28;20249;-87
2023/04/10 07:15:13;;;;;;;0.60;0.30;;;12.00;99.90;;;;;;5014743;28;20560;-82
2023/04/10 07:17:39;;;;;;;0.30;0.30;;;12.00;99.90;;;;;;5013834;28;20178;-82
2023/04/10 07:20:05;;;;;;;1.07;0.30;;;11.90;99.90;;;;;;5013445;28;20206;-79
2023/04/10 07:22:31;;;;;;;1.80;0.40;;;12.00;99.90;;;;;;5012620;28;20186;-83
2023/04/10 07:24:57;;;;;;;0.83;0.40;;;11.90;99.90;;;;;;5013655;28;20225;-78
2023/04/10 07:27:23;;;;;;;2.00;0.60;;;12.00;99.90;;;;;;5014289;28;20225;-83
2023/04/10 07:29:49;;;;;;;2.63;0.50;;;;;;;;;;5014592;28;20186;-84
2023/04/10 07:32:15;;;;;;;3.87;0.60;;;11.80;99.90;;;;;;5014529;28;20167;-90
2023/04/10 07:34:41;;;;;;;4.23;0.77;;;12.00;99.90;;;;;;5013477;28;20653;-85
2023/04/10 07:37:07;;;;;;;1.70;0.57;;;11.90;99.90;;;;;;5012420;28;20533;-80
2023/04/10 07:39:32;;;;;;;1.83;0.57;;;11.90;99.90;;;;;;5013039;28;20214;-79
2023/04/10 07:41:58;;;;;;;4.20;0.70;;;;;;;;;;5013160;28;20178;-82
2023/04/10 07:44:25;;;;;;;5.37;1.00;;;11.90;99.90;;;;;;5012896;28;20186;-80
2023/04/10 07:46:51;;;;;;;3.90;0.80;;;11.90;99.90;;;;;;5013164;28;20211;-84
2023/04/10 07:49:17;;;;;;;1.73;0.80;;;12.00;99.90;;;;;;5010258;28;20237;-84
2023/04/10 07:51:42;;;;;;;5.27;0.73;;;11.80;99.90;;;;;;5012643;28;20677;-83
2023/04/10 07:54:08;;;;;;;2.60;0.50;;;11.80;99.90;;;;;;5012446;28;20756;-82
2023/04/10 07:56:34;;;;;;;5.43;0.90;;;;;;;;;;5012884;28;20645;-82
2023/04/10 07:59:00;;;;;;;1.83;0.50;;;;;;;;;;5012978;28;20237;-80
2023/04/10 08:01:27;;;;;;;5.10;0.73;;;12.00;99.90;;;;;;5012081;28;20277;-80
2023/04/10 08:03:54;;;;;;;3.60;0.80;;;12.00;99.90;;;;;;5008659;28;20175;-78
2023/04/10 08:06:19;;;;;;;3.03;0.70;;;12.60;99.90;;;;;;5011920;28;20673;-78
2023/04/10 08:08:45;;;;;;;1.37;0.40;;;12.20;99.90;;;;;;5014334;28;20235;-79
2023/04/10 08:11:24;;;;;;;6.57;0.80;;;12.30;99.90;;;;;;5012063;28;20191;-81
2023/04/10 08:13:53;;;;;;;1.93;0.50;;;12.20;99.90;;;;;;5013336;28;20239;-82
2023/04/10 08:16:30;;;;;;;7.47;0.70;;;12.20;99.90;;;;;;5012237;28;20901;-78
2023/04/10 08:18:56;;;;;;;2.53;0.63;;;12.10;99.90;;;;;;5004057;28;20217;-76
2023/04/10 08:21:26;;;;;;;4.50;0.80;;;12.10;99.90;;;;;;5010996;28;20800;-78
2023/04/10 08:23:54;;;;;;;4.07;0.80;;;12.20;99.90;;;;;;5005197;28;20178;-77
2023/04/10 08:26:20;;;;;;;5.97;0.93;;;12.00;99.90;;;;;;5011883;28;20190;-76
2023/04/10 08:28:50;;;;;;;4.77;1.17;;;12.00;99.90;;;;;;5012053;28;20174;-81
2023/04/10 08:31:17;;;;;;;4.87;0.67;;;12.00;99.90;;;;;;5012034;28;20201;-77
2023/04/10 08:33:42;;;;;;;3.80;0.70;;;13.50;99.90;;;;;;5010622;28;20170;-75
2023/04/10 08:36:09;;;;;;;2.60;0.63;;;12.00;99.90;;;;;;5009500;28;20688;-76
2023/04/10 08:38:34;;;;;;;6.50;0.90;;;12.00;99.90;;;;;;5014468;28;20202;-90
2023/04/10 08:41:00;;;;;;;6.53;1.37;;;11.90;99.90;;;;;;5014350;28;20248;-86
2023/04/10 08:43:26;;;;;;;10.50;1.30;;;11.90;99.90;;;;;;5012715;28;20211;-88
2023/04/10 08:45:52;;;;;;;5.60;1.10;;;12.00;99.90;;;;;;5012208;28;20213;-80
2023/04/10 08:48:22;;;;;;;9.27;1.80;;;12.00;99.90;;;;;;5011114;28;20175;-87
2023/04/10 08:50:49;;;;;;;8.03;1.50;;;11.90;99.90;;;;;;5012827;28;20240;-85
2023/04/10 08:53:16;;;;;;;9.73;1.77;;;12.00;99.90;;;;;;5012964;28;20712;-83
2023/04/10 08:55:44;;;;;;;9.67;1.80;;;12.10;99.90;;;;;;5012158;28;20680;-83
2023/04/10 08:58:12;;;;;;;9.93;1.47;;;12.10;99.90;;;;;;5010703;28;20202;-85
2023/04/10 09:00:38;;;;;;;9.40;1.80;;;12.10;99.90;;;;;;5012965;28;20179;-82
2023/04/10 09:03:10;;;;;;;7.83;1.60;;;12.00;99.90;;;;;;5011983;28;20183;-82
2023/04/10 09:05:36;;;;;;;9.20;1.60;;;11.80;99.90;;;;;;5011686;28;20235;-81
2023/04/10 09:08:03;;;;;;;15.37;2.10;;;11.80;99.90;;;;;;5011157;28;20182;-84
2023/04/10 09:10:29;;;;;;;7.67;1.80;;;12.00;99.90;;;;;;5010687;28;20193;-83
2023/04/10 09:12:54;;;;;;;4.83;1.60;;;12.10;99.90;;;;;;5012816;28;20182;-85
2023/04/10 09:15:20;;;;;;;14.80;2.03;;;12.10;99.90;;;;;;5012545;28;20537;-86
2023/04/10 09:18:00;;;;;;;12.27;1.87;;;12.20;99.90;;;;;;5011849;28;20181;-83
2023/04/10 09:20:29;;;;;;;13.87;2.00;;;12.50;99.90;;;;;;5008873;28;20214;-84
2023/04/10 09:22:55;;;;;;;10.97;1.73;;;13.60;99.90;;;;;;5013886;28;20186;-86
2023/04/10 09:25:35;;;;;;;10.32;1.85;;;13.70;99.90;;;;;;5012768;28;20545;-78
2023/04/10 09:28:03;;;;;;;10.55;1.80;;;14.00;99.90;;;;;;5011766;28;20183;-78
2023/04/10 09:30:39;;;;;;;10.27;1.75;;;15.00;99.90;;;;;;5012767;28;20190;-85
2023/04/10 09:33:26;;;;;;;7.40;2.05;;;15.60;99.90;;;;;;5011776;28;20188;-85
2023/04/10 09:35:51;;;;;;;12.52;1.95;;;16.30;99.90;;;;;;5006926;28;20186;-89
2023/04/10 09:38:19;;;;;;;11.00;1.85;;;16.20;99.90;;;;;;5011187;28;20178;-84
2023/04/10 09:40:46;;;;;;;13.15;2.40;;;16.70;99.90;;;;;;5012797;28;20179;-88
2023/04/10 09:43:23;;;;;;;4.90;1.00;;;17.50;99.90;;;;;;5013764;28;20549;-86
2023/04/10 09:45:51;;;;;;;7.30;1.88;;;17.20;99.90;;;;;;5010494;28;20188;-86
2023/04/10 09:48:17;;;;;;;8.50;1.40;;;17.20;99.90;;;;;;5011920;28;20194;-87
2023/04/10 09:50:42;;;;;;;11.15;1.73;;;17.20;99.90;;;;;;5012384;28;20178;-88
2023/04/10 09:53:18;;;;;;;8.60;2.25;;;17.70;99.90;;;;;;5012854;28;20214;-88
2023/04/10 09:55:44;;;;;;;10.38;1.52;;;17.90;99.90;;;;;;5004986;28;20177;-87
2023/04/10 09:58:10;;;;;;;8.50;1.85;;;18.30;99.90;;;;;;5012048;28;20238;-87
2023/04/10 10:00:38;;;;;;;12.60;2.38;;;18.10;99.90;;;;;;5011071;28;20229;-86
2023/04/10 10:03:07;;;;;;;7.03;1.90;;;17.20;99.90;;;;;;5012048;28;20269;-85
2023/04/10 10:05:38;;;;;;;10.25;2.15;;;16.00;99.90;;;;;;5011959;28;20183;-88
2023/04/10 10:08:04;;;;;;;17.92;2.25;;;15.30;99.90;;;;;;5012376;28;20186;-88
2023/04/10 10:10:30;;;;;;;15.60;2.10;;;15.00;99.90;;;;;;5011111;28;20281;-87
2023/04/10 10:13:00;;;;;;;11.43;2.17;;;14.80;99.90;;;;;;5013491;28;20179;-88
2023/04/10 10:15:45;;;;;;;9.75;1.55;;;14.70;99.90;;;;;;5011597;28;20256;-87
2023/04/10 10:18:20;;;;;;;12.63;2.20;;;14.90;99.90;;;;;;5010801;28;20182;-85
2023/04/10 10:20:46;;;;;;;8.05;1.80;;;15.60;99.90;;;;;;5005806;28;20186;-88
2023/04/10 10:23:12;;;;;;;11.85;2.30;;;15.40;99.90;;;;;;5013104;28;20177;-85
2023/04/10 10:25:39;;;;;;;12.02;2.05;;;14.90;99.90;;;;;;5012848;28;20288;-86
2023/04/10 10:28:05;;;;;;;15.23;2.72;;;14.90;99.90;;;;;;5011880;28;20291;-85
2023/04/10 10:30:34;;;;;;;10.13;2.05;;;15.30;99.90;;;;;;5011834;28;20178;-85
2023/04/10 10:33:05;;;;;;;11.35;2.05;;;15.90;99.90;;;;;;5007281;28;20174;-82
2023/04/10 10:35:31;;;;;;;12.65;2.45;;;15.90;99.90;;;;;;5009309;28;20182;-83
2023/04/10 10:37:59;;;;;;;14.90;2.72;;;16.80;99.90;;;;;;5011375;28;20244;-85
2023/04/10 10:40:31;;;;;;;15.35;2.72;;;15.80;99.90;;;;;;5010969;28;20218;-83
2023/04/10 10:43:19;;;;;;;23.38;2.90;;;15.10;99.90;;;;;;5010053;28;20206;-86
2023/04/10 10:46:08;;;;;;;14.35;2.92;;;15.20;99.90;;;;;;5007333;28;20186;-84
2023/04/10 10:48:33;;;;;;;14.73;2.30;;;16.10;99.90;;;;;;5013379;28;20644;-86
2023/04/10 10:51:00;;;;;;;16.60;2.60;;;16.50;99.90;;;;;;5013288;28;20175;-86
2023/04/10 10:53:41;;;;;;;16.85;2.33;;;17.60;99.90;;;;;;5012647;28;20250;-84
2023/04/10 10:56:22;;;;;;;17.17;2.60;;;17.50;99.90;;;;;;5014991;28;20171;-84
2023/04/10 10:59:02;;;;;;;12.00;1.85;;;16.60;99.90;;;;;;5010901;28;20214;-85
2023/04/10 11:01:27;;;;;;;17.42;3.13;;;16.10;99.90;;;;;;5012603;28;20214;-83
2023/04/10 11:03:53;;;;;;;19.65;3.17;;;16.90;99.90;;;;;;5012586;28;20198;-84
2023/04/10 11:06:20;;;;;;;19.15;2.70;;;16.70;99.90;;;;;;5005893;28;20186;-83
2023/04/10 11:08:47;;;;;;;13.70;2.42;;;15.20;99.90;;;;;;5040042;28;20289;-86
2023/04/10 11:11:20;;;;;;;14.68;2.35;;;14.60;99.90;;;;;;5011629;28;20183;-83
2023/04/10 11:13:49;;;;;;;17.85;2.80;;;15.30;99.90;;;;;;5011270;28;20183;-87
2023/04/10 11:16:15;;;;;;;14.65;3.13;;;15.30;99.90;;;;;;5010071;28;20191;-82
2023/04/10 11:18:49;;;;;;;10.43;1.85;;;16.70;99.90;;;;;;5009551;28;20289;-82
2023/04/10 11:21:21;;;;;;;14.05;2.83;;;17.40;99.90;;;;;;5016093;28;20193;-82
2023/04/10 11:23:49;;;;;;;10.93;2.60;;;18.40;99.90;;;;;;5021715;28;20233;-81
2023/04/10 11:26:33;;;;;;;16.67;2.75;;;17.90;99.90;;;;;;5023409;28;20190;-82
2023/04/10 11:29:13;;;;;;;22.77;3.22;;;17.40;99.90;;;;;;5025763;28;20197;-85
2023/04/10 11:31:39;;;;;;;16.80;3.40;;;17.60;99.90;;;;;;5023156;28;20205;-81
2023/04/10 11:34:15;;;;;;;20.73;3.67;;;18.40;99.90;;;;;;5017729;28;20704;-83
2023/04/10 11:36:42;;;;;;;27.52;4.03;;;18.10;99.90;;;;;;5012695;28;20190;-86
2023/04/10 11:39:16;;;;;;;18.23;3.60;;;17.90;99.90;;;;;;5013013;28;20206;-86
2023/04/10 11:41:44;;;;;;;20.25;3.53;;;17.90;99.90;;;;;;5020122;28;20175;-85
2023/04/10 11:44:16;;;;;;;10.90;1.95;;;17.30;99.90;;;;;;5017099;28;20206;-83
2023/04/10 11:46:46;;;;;;;9.45;1.63;;;17.80;99.90;;;;;;5016189;28;20197;-85
2023/04/10 11:49:16;;;;;;;11.95;1.42;;;18.20;99.90;;;;;;5016813;28;20193;-85
2023/04/10 11:51:45;;;;;;;11.57;2.35;;;18.20;99.90;;;;;;5021300;28;20261;-86
2023/04/10 11:54:19;;;;;;;8.45;1.70;;;18.30;99.90;;;;;;5022089;28;20194;-85
2023/04/10 11:57:08;;;;;;;10.10;1.95;;;19.00;99.90;;;;;;5020225;28;20182;-85
2023/04/10 11:59:34;;;;;;;11.25;1.92;;;18.80;99.90;;;;;;5020436;28;20254;-84
2023/04/10 12:02:09;;;;;;;9.05;2.10;;;18.40;99.90;;;;;;5026533;28;20186;-84
2023/04/10 12:04:35;;;;;;;10.35;1.75;;;18.50;99.90;;;;;;5017415;28;20261;-84
2023/04/10 12:07:01;;;;;;;9.25;1.98;;;18.80;99.90;;;;;;5026904;28;20193;-86
2023/04/10 12:09:26;;;;;;;15.45;2.00;;;18.50;99.90;;;;;;5025440;28;20174;-87
2023/04/10 12:11:55;;;;;;;10.23;1.60;;;17.50;99.90;;;;;;5027835;28;20194;-84
2023/04/10 12:14:22;;;;;;;13.25;2.33;;;17.50;99.90;;;;;;5021164;28;20177;-82
2023/04/10 12:16:49;;;;;;;10.27;2.15;;;17.30;99.90;;;;;;5024680;28;20186;-84
2023/04/10 12:19:16;;;;;;;18.13;2.47;;;17.90;99.90;;;;;;5028975;28;20256;-84
2023/04/10 12:21:43;;;;;;;10.80;1.67;;;17.60;99.90;;;;;;5030770;28;20187;-85
2023/04/10 12:24:09;;;;;;;8.60;1.60;;;17.20;99.90;;;;;;5028046;28;20183;-85
2023/04/10 12:26:35;;;;;;;7.93;1.75;;;17.10;99.90;;;;;;5023909;28;20196;-84
2023/04/10 12:29:01;;;;;;;9.38;1.45;;;17.10;99.90;;;;;;5024928;28;20265;-84
2023/04/10 12:31:27;;;;;;;12.30;2.40;;;17.60;99.90;;;;;;5025972;28;20202;-85
2023/04/10 12:33:56;;;;;;;8.60;1.52;;;18.00;99.90;;;;;;5032161;28;20175;-84
2023/04/10 12:36:28;;;;;;;10.63;2.10;;;17.60;99.90;;;;;;5029714;28;20197;-85
2023/04/10 12:38:55;;;;;;;9.48;1.90;;;17.50;99.90;;;;;;5021714;28;20218;-85
2023/04/10 12:41:26;;;;;;;6.60;1.63;;;18.80;99.90;;;;;;5022481;28;20173;-82
2023/04/10 12:43:53;;;;;;;4.43;1.30;;;18.40;99.90;;;;;;5026568;28;20212;-82
2023/04/10 12:46:28;;;;;;;9.18;1.92;;;18.00;99.90;;;;;;5024945;28;20174;-83
2023/04/10 12:48:55;;;;;;;12.13;1.90;;;18.80;99.90;;;;;;5020950;28;20178;-83
2023/04/10 12:51:41;;;;;;;10.13;1.60;;;19.00;99.90;;;;;;5015172;28;20207;-82